sensor_id;sensor_type;location;lat;lon;timestamp;P1;durP1;ratioP1;P2;durP2;ratioP2
49510;SDS011;35413;48.776;9.204;2023-02-01T00:00:56;1.67;;;0.90;;
49510;SDS011;35413;48.776;9.204;2023-02-01T00:03:22;2.45;;;0.70;;
49510;SDS011;35413;48.776;9.204;2023-02-01T00:05:57;1.48;;;0.75;;
49510;SDS011;35413;48.776;9.204;2023-02-01T00:08:24;1.95;;;1.13;;
49510;SDS011;35413;48.776;9.204;2023-02-01T00:10:57;0.93;;;0.70;;
49510;SDS011;35413;48.776;9.204;2023-02-01T00:13:23;1.00;;;0.43;;
49510;SDS011;35413;48.776;9.204;2023-02-01T00:15:49;0.88;;;0.57;;
49510;SDS011;35413;48.776;9.204;2023-02-01T00:18:15;2.35;;;0.93;;
49510;SDS011;35413;48.776;9.204;2023-02-01T00:20:45;1.05;;;0.60;;
49510;SDS011;35413;48.776;9.204;2023-02-01T00:23:11;1.45;;;0.65;;
49510;SDS011;35413;48.776;9.204;2023-02-01T00:25:37;0.95;;;0.85;;
49510;SDS011;35413;48.776;9.204;2023-02-01T00:28:04;0.90;;;0.50;;
49510;SDS011;35413;48.776;9.204;2023-02-01T00:30:30;1.42;;;0.55;;
49510;SDS011;35413;48.776;9.204;2023-02-01T00:32:56;0.93;;;0.70;;
49510;SDS011;35413;48.776;9.204;2023-02-01T00:35:22;2.38;;;0.80;;
49510;SDS011;35413;48.776;9.204;2023-02-01T00:37:48;0.75;;;0.73;;
49510;SDS011;35413;48.776;9.204;2023-02-01T00:40:14;3.80;;;0.90;;
49510;SDS011;35413;48.776;9.204;2023-02-01T00:42:40;0.73;;;0.70;;
49510;SDS011;35413;48.776;9.204;2023-02-01T00:45:06;0.90;;;0.50;;
49510;SDS011;35413;48.776;9.204;2023-02-01T00:47:32;0.93;;;0.60;;
49510;SDS011;35413;48.776;9.204;2023-02-01T00:49:58;1.25;;;0.50;;
49510;SDS011;35413;48.776;9.204;2023-02-01T00:52:24;2.25;;;1.23;;
49510;SDS011;35413;48.776;9.204;2023-02-01T00:54:50;1.83;;;0.50;;
49510;SDS011;35413;48.776;9.204;2023-02-01T00:57:16;1.75;;;0.60;;
49510;SDS011;35413;48.776;9.204;2023-02-01T00:59:42;1.95;;;0.60;;
49510;SDS011;35413;48.776;9.204;2023-02-01T01:02:08;1.92;;;1.20;;
49510;SDS011;35413;48.776;9.204;2023-02-01T01:04:35;1.00;;;0.60;;
49510;SDS011;35413;48.776;9.204;2023-02-01T01:07:02;1.08;;;0.60;;
49510;SDS011;35413;48.776;9.204;2023-02-01T01:09:28;0.93;;;0.60;;
49510;SDS011;35413;48.776;9.204;2023-02-01T01:11:54;0.90;;;0.60;;
49510;SDS011;35413;48.776;9.204;2023-02-01T01:14:20;0.77;;;0.50;;
49510;SDS011;35413;48.776;9.204;2023-02-01T01:16:46;1.10;;;0.80;;
49510;SDS011;35413;48.776;9.204;2023-02-01T01:19:12;2.38;;;0.45;;
49510;SDS011;35413;48.776;9.204;2023-02-01T01:21:38;0.70;;;0.50;;
49510;SDS011;35413;48.776;9.204;2023-02-01T01:24:04;0.77;;;0.57;;
49510;SDS011;35413;48.776;9.204;2023-02-01T01:26:30;1.10;;;0.60;;
49510;SDS011;35413;48.776;9.204;2023-02-01T01:28:57;1.02;;;0.70;;
49510;SDS011;35413;48.776;9.204;2023-02-01T01:31:23;0.88;;;0.70;;
49510;SDS011;35413;48.776;9.204;2023-02-01T01:33:50;1.30;;;0.63;;
49510;SDS011;35413;48.776;9.204;2023-02-01T01:36:16;0.90;;;0.60;;
49510;SDS011;35413;48.776;9.204;2023-02-01T01:38:42;0.80;;;0.57;;
49510;SDS011;35413;48.776;9.204;2023-02-01T01:41:10;1.00;;;0.70;;
49510;SDS011;35413;48.776;9.204;2023-02-01T01:43:46;0.73;;;0.50;;
49510;SDS011;35413;48.776;9.204;2023-02-01T01:46:19;0.82;;;0.50;;
49510;SDS011;35413;48.776;9.204;2023-02-01T01:48:47;0.47;;;0.40;;
49510;SDS011;35413;48.776;9.204;2023-02-01T01:51:13;0.50;;;0.47;;
49510;SDS011;35413;48.776;9.204;2023-02-01T01:53:57;0.80;;;0.60;;
49510;SDS011;35413;48.776;9.204;2023-02-01T01:56:25;0.85;;;0.47;;
49510;SDS011;35413;48.776;9.204;2023-02-01T01:58:52;0.50;;;0.50;;
49510;SDS011;35413;48.776;9.204;2023-02-01T02:01:18;0.50;;;0.47;;
49510;SDS011;35413;48.776;9.204;2023-02-01T02:03:44;0.57;;;0.40;;
49510;SDS011;35413;48.776;9.204;2023-02-01T02:08:50;0.40;;;0.40;;
49510;SDS011;35413;48.776;9.204;2023-02-01T02:11:16;0.57;;;0.50;;
49510;SDS011;35413;48.776;9.204;2023-02-01T02:13:44;0.50;;;0.50;;
49510;SDS011;35413;48.776;9.204;2023-02-01T02:24:34;0.65;;;0.40;;
49510;SDS011;35413;48.776;9.204;2023-02-01T02:27:10;0.43;;;0.40;;
49510;SDS011;35413;48.776;9.204;2023-02-01T02:30:01;0.60;;;0.40;;
49510;SDS011;35413;48.776;9.204;2023-02-01T02:32:39;1.25;;;0.40;;
49510;SDS011;35413;48.776;9.204;2023-02-01T02:35:16;0.47;;;0.40;;
49510;SDS011;35413;48.776;9.204;2023-02-01T02:37:53;0.50;;;0.50;;
49510;SDS011;35413;48.776;9.204;2023-02-01T02:40:22;0.85;;;0.57;;
49510;SDS011;35413;48.776;9.204;2023-02-01T02:42:59;2.10;;;0.70;;
49510;SDS011;35413;48.776;9.204;2023-02-01T02:48:47;0.60;;;0.40;;
49510;SDS011;35413;48.776;9.204;2023-02-01T02:51:16;0.98;;;0.57;;
49510;SDS011;35413;48.776;9.204;2023-02-01T02:54:25;0.45;;;0.45;;
49510;SDS011;35413;48.776;9.204;2023-02-01T02:57:16;0.85;;;0.50;;
49510;SDS011;35413;48.776;9.204;2023-02-01T03:00:03;0.68;;;0.50;;
49510;SDS011;35413;48.776;9.204;2023-02-01T03:02:49;0.88;;;0.47;;
49510;SDS011;35413;48.776;9.204;2023-02-01T03:05:34;0.38;;;0.32;;
49510;SDS011;35413;48.776;9.204;2023-02-01T03:08:04;0.68;;;0.68;;
49510;SDS011;35413;48.776;9.204;2023-02-01T03:10:44;0.75;;;0.52;;
49510;SDS011;35413;48.776;9.204;2023-02-01T03:15:43;0.47;;;0.43;;
49510;SDS011;35413;48.776;9.204;2023-02-01T03:18:16;0.55;;;0.40;;
49510;SDS011;35413;48.776;9.204;2023-02-01T03:20:44;0.80;;;0.60;;
49510;SDS011;35413;48.776;9.204;2023-02-01T03:23:11;0.80;;;0.40;;
49510;SDS011;35413;48.776;9.204;2023-02-01T03:25:40;0.40;;;0.40;;
49510;SDS011;35413;48.776;9.204;2023-02-01T03:28:07;0.57;;;0.40;;
49510;SDS011;35413;48.776;9.204;2023-02-01T03:30:35;0.43;;;0.40;;
49510;SDS011;35413;48.776;9.204;2023-02-01T03:33:03;0.50;;;0.50;;
49510;SDS011;35413;48.776;9.204;2023-02-01T03:35:39;0.50;;;0.40;;
49510;SDS011;35413;48.776;9.204;2023-02-01T03:38:09;1.33;;;0.60;;
49510;SDS011;35413;48.776;9.204;2023-02-01T03:40:38;0.52;;;0.40;;
49510;SDS011;35413;48.776;9.204;2023-02-01T03:43:06;0.45;;;0.40;;
49510;SDS011;35413;48.776;9.204;2023-02-01T03:45:36;0.60;;;0.40;;
49510;SDS011;35413;48.776;9.204;2023-02-01T03:48:05;0.45;;;0.40;;
49510;SDS011;35413;48.776;9.204;2023-02-01T03:50:32;0.38;;;0.30;;
49510;SDS011;35413;48.776;9.204;2023-02-01T03:53:02;0.40;;;0.40;;
49510;SDS011;35413;48.776;9.204;2023-02-01T03:55:29;0.55;;;0.40;;
49510;SDS011;35413;48.776;9.204;2023-02-01T03:58:01;0.40;;;0.30;;
49510;SDS011;35413;48.776;9.204;2023-02-01T04:00:28;0.55;;;0.50;;
49510;SDS011;35413;48.776;9.204;2023-02-01T04:02:54;0.50;;;0.40;;
49510;SDS011;35413;48.776;9.204;2023-02-01T04:05:20;1.00;;;0.40;;
49510;SDS011;35413;48.776;9.204;2023-02-01T04:07:47;1.33;;;0.50;;
49510;SDS011;35413;48.776;9.204;2023-02-01T04:10:13;0.60;;;0.60;;
49510;SDS011;35413;48.776;9.204;2023-02-01T04:12:39;0.30;;;0.30;;
49510;SDS011;35413;48.776;9.204;2023-02-01T04:15:06;0.32;;;0.32;;
49510;SDS011;35413;48.776;9.204;2023-02-01T04:17:32;0.65;;;0.40;;
49510;SDS011;35413;48.776;9.204;2023-02-01T04:19:58;0.70;;;0.40;;
49510;SDS011;35413;48.776;9.204;2023-02-01T04:22:24;0.60;;;0.40;;
49510;SDS011;35413;48.776;9.204;2023-02-01T04:24:50;1.08;;;0.70;;
49510;SDS011;35413;48.776;9.204;2023-02-01T04:27:16;0.98;;;0.30;;
49510;SDS011;35413;48.776;9.204;2023-02-01T04:29:42;0.40;;;0.40;;
49510;SDS011;35413;48.776;9.204;2023-02-01T04:32:10;0.73;;;0.52;;
49510;SDS011;35413;48.776;9.204;2023-02-01T04:34:36;0.50;;;0.45;;
49510;SDS011;35413;48.776;9.204;2023-02-01T04:37:01;0.70;;;0.43;;
49510;SDS011;35413;48.776;9.204;2023-02-01T04:39:27;2.20;;;0.30;;
49510;SDS011;35413;48.776;9.204;2023-02-01T04:41:53;0.70;;;0.40;;
49510;SDS011;35413;48.776;9.204;2023-02-01T04:44:19;0.40;;;0.40;;
49510;SDS011;35413;48.776;9.204;2023-02-01T04:46:46;1.10;;;0.60;;
49510;SDS011;35413;48.776;9.204;2023-02-01T04:49:12;0.40;;;0.40;;
49510;SDS011;35413;48.776;9.204;2023-02-01T04:51:39;0.40;;;0.35;;
49510;SDS011;35413;48.776;9.204;2023-02-01T04:54:05;1.35;;;0.40;;
49510;SDS011;35413;48.776;9.204;2023-02-01T04:56:31;0.55;;;0.30;;
49510;SDS011;35413;48.776;9.204;2023-02-01T04:58:57;1.50;;;0.50;;
49510;SDS011;35413;48.776;9.204;2023-02-01T05:01:23;0.43;;;0.40;;
49510;SDS011;35413;48.776;9.204;2023-02-01T05:03:52;0.40;;;0.40;;
49510;SDS011;35413;48.776;9.204;2023-02-01T05:06:18;0.40;;;0.40;;
49510;SDS011;35413;48.776;9.204;2023-02-01T05:08:43;0.38;;;0.32;;
49510;SDS011;35413;48.776;9.204;2023-02-01T05:11:09;0.38;;;0.30;;
49510;SDS011;35413;48.776;9.204;2023-02-01T05:13:55;0.60;;;0.60;;
49510;SDS011;35413;48.776;9.204;2023-02-01T05:16:21;1.08;;;0.43;;
49510;SDS011;35413;48.776;9.204;2023-02-01T05:18:47;0.50;;;0.45;;
49510;SDS011;35413;48.776;9.204;2023-02-01T05:21:13;0.55;;;0.55;;
49510;SDS011;35413;48.776;9.204;2023-02-01T05:23:39;0.40;;;0.40;;
49510;SDS011;35413;48.776;9.204;2023-02-01T05:26:24;0.70;;;0.60;;
49510;SDS011;35413;48.776;9.204;2023-02-01T05:28:50;0.20;;;0.20;;
49510;SDS011;35413;48.776;9.204;2023-02-01T05:31:16;0.30;;;0.22;;
49510;SDS011;35413;48.776;9.204;2023-02-01T05:33:42;2.38;;;0.63;;
49510;SDS011;35413;48.776;9.204;2023-02-01T05:36:08;0.50;;;0.40;;
49510;SDS011;35413;48.776;9.204;2023-02-01T05:38:34;0.55;;;0.40;;
49510;SDS011;35413;48.776;9.204;2023-02-01T05:41:00;0.60;;;0.50;;
49510;SDS011;35413;48.776;9.204;2023-02-01T05:43:26;0.50;;;0.43;;
49510;SDS011;35413;48.776;9.204;2023-02-01T05:45:55;0.45;;;0.40;;
49510;SDS011;35413;48.776;9.204;2023-02-01T05:48:21;0.70;;;0.68;;
49510;SDS011;35413;48.776;9.204;2023-02-01T05:50:47;0.50;;;0.40;;
49510;SDS011;35413;48.776;9.204;2023-02-01T05:53:13;0.93;;;0.60;;
49510;SDS011;35413;48.776;9.204;2023-02-01T05:55:39;0.50;;;0.50;;
49510;SDS011;35413;48.776;9.204;2023-02-01T05:58:05;0.57;;;0.57;;
49510;SDS011;35413;48.776;9.204;2023-02-01T06:00:31;1.30;;;0.50;;
49510;SDS011;35413;48.776;9.204;2023-02-01T06:02:57;0.63;;;0.40;;
49510;SDS011;35413;48.776;9.204;2023-02-01T06:05:23;0.40;;;0.40;;
49510;SDS011;35413;48.776;9.204;2023-02-01T06:07:49;0.70;;;0.50;;
49510;SDS011;35413;48.776;9.204;2023-02-01T06:10:18;0.30;;;0.30;;
49510;SDS011;35413;48.776;9.204;2023-02-01T06:12:44;0.93;;;0.82;;
49510;SDS011;35413;48.776;9.204;2023-02-01T06:15:11;0.40;;;0.40;;
49510;SDS011;35413;48.776;9.204;2023-02-01T06:17:37;1.50;;;0.30;;
49510;SDS011;35413;48.776;9.204;2023-02-01T06:20:04;0.60;;;0.45;;
49510;SDS011;35413;48.776;9.204;2023-02-01T06:22:31;0.40;;;0.38;;
49510;SDS011;35413;48.776;9.204;2023-02-01T06:24:57;12.55;;;1.45;;
49510;SDS011;35413;48.776;9.204;2023-02-01T06:27:24;1.88;;;0.32;;
49510;SDS011;35413;48.776;9.204;2023-02-01T06:29:50;1.73;;;0.38;;
49510;SDS011;35413;48.776;9.204;2023-02-01T06:32:16;0.55;;;0.40;;
49510;SDS011;35413;48.776;9.204;2023-02-01T06:34:42;0.52;;;0.30;;
49510;SDS011;35413;48.776;9.204;2023-02-01T06:37:09;1.00;;;0.50;;
49510;SDS011;35413;48.776;9.204;2023-02-01T06:39:36;1.33;;;0.52;;
49510;SDS011;35413;48.776;9.204;2023-02-01T06:42:02;2.45;;;0.60;;
49510;SDS011;35413;48.776;9.204;2023-02-01T06:44:28;0.55;;;0.30;;
49510;SDS011;35413;48.776;9.204;2023-02-01T06:46:54;0.65;;;0.40;;
49510;SDS011;35413;48.776;9.204;2023-02-01T06:49:20;1.98;;;0.30;;
49510;SDS011;35413;48.776;9.204;2023-02-01T06:51:46;2.20;;;0.80;;
49510;SDS011;35413;48.776;9.204;2023-02-01T06:54:12;1.08;;;0.40;;
49510;SDS011;35413;48.776;9.204;2023-02-01T06:56:38;1.38;;;0.60;;
49510;SDS011;35413;48.776;9.204;2023-02-01T06:59:05;0.95;;;0.50;;
49510;SDS011;35413;48.776;9.204;2023-02-01T07:01:31;1.52;;;0.50;;
49510;SDS011;35413;48.776;9.204;2023-02-01T07:03:57;2.75;;;0.57;;
49510;SDS011;35413;48.776;9.204;2023-02-01T07:06:23;3.33;;;0.60;;
49510;SDS011;35413;48.776;9.204;2023-02-01T07:08:49;0.52;;;0.50;;
49510;SDS011;35413;48.776;9.204;2023-02-01T07:11:16;2.40;;;0.52;;
49510;SDS011;35413;48.776;9.204;2023-02-01T07:13:42;2.67;;;0.50;;
49510;SDS011;35413;48.776;9.204;2023-02-01T07:16:12;4.18;;;0.60;;
49510;SDS011;35413;48.776;9.204;2023-02-01T07:18:38;3.28;;;0.50;;
49510;SDS011;35413;48.776;9.204;2023-02-01T07:21:04;0.30;;;0.30;;
49510;SDS011;35413;48.776;9.204;2023-02-01T07:23:30;0.80;;;0.40;;
49510;SDS011;35413;48.776;9.204;2023-02-01T07:25:57;0.90;;;0.50;;
49510;SDS011;35413;48.776;9.204;2023-02-01T07:28:23;1.42;;;0.60;;
49510;SDS011;35413;48.776;9.204;2023-02-01T07:30:50;2.78;;;0.80;;
49510;SDS011;35413;48.776;9.204;2023-02-01T07:33:19;1.25;;;0.60;;
49510;SDS011;35413;48.776;9.204;2023-02-01T07:35:46;1.00;;;0.50;;
49510;SDS011;35413;48.776;9.204;2023-02-01T07:38:12;5.43;;;0.70;;
49510;SDS011;35413;48.776;9.204;2023-02-01T07:40:38;3.17;;;0.55;;
49510;SDS011;35413;48.776;9.204;2023-02-01T07:43:04;1.38;;;0.65;;
49510;SDS011;35413;48.776;9.204;2023-02-01T07:45:32;1.00;;;0.50;;
49510;SDS011;35413;48.776;9.204;2023-02-01T07:47:58;0.85;;;0.50;;
49510;SDS011;35413;48.776;9.204;2023-02-01T07:50:24;1.52;;;0.50;;
49510;SDS011;35413;48.776;9.204;2023-02-01T07:52:50;2.30;;;1.02;;
49510;SDS011;35413;48.776;9.204;2023-02-01T07:55:18;0.70;;;0.50;;
49510;SDS011;35413;48.776;9.204;2023-02-01T07:57:44;1.38;;;0.50;;
49510;SDS011;35413;48.776;9.204;2023-02-01T08:00:10;2.70;;;0.40;;
49510;SDS011;35413;48.776;9.204;2023-02-01T08:02:57;2.80;;;0.47;;
49510;SDS011;35413;48.776;9.204;2023-02-01T08:05:23;0.40;;;0.38;;
49510;SDS011;35413;48.776;9.204;2023-02-01T08:07:49;1.38;;;0.45;;
49510;SDS011;35413;48.776;9.204;2023-02-01T08:10:16;1.67;;;0.50;;
49510;SDS011;35413;48.776;9.204;2023-02-01T08:12:42;3.72;;;0.80;;
49510;SDS011;35413;48.776;9.204;2023-02-01T08:15:12;0.45;;;0.35;;
49510;SDS011;35413;48.776;9.204;2023-02-01T08:17:38;0.93;;;0.50;;
49510;SDS011;35413;48.776;9.204;2023-02-01T08:20:04;1.40;;;0.47;;
49510;SDS011;35413;48.776;9.204;2023-02-01T08:22:33;2.78;;;0.73;;
49510;SDS011;35413;48.776;9.204;2023-02-01T08:24:59;0.57;;;0.47;;
49510;SDS011;35413;48.776;9.204;2023-02-01T08:27:26;1.42;;;0.52;;
49510;SDS011;35413;48.776;9.204;2023-02-01T08:29:52;1.20;;;0.65;;
49510;SDS011;35413;48.776;9.204;2023-02-01T08:32:19;1.23;;;0.77;;
49510;SDS011;35413;48.776;9.204;2023-02-01T08:34:45;1.75;;;0.57;;
49510;SDS011;35413;48.776;9.204;2023-02-01T08:37:11;0.77;;;0.43;;
49510;SDS011;35413;48.776;9.204;2023-02-01T08:39:36;0.73;;;0.43;;
49510;SDS011;35413;48.776;9.204;2023-02-01T08:42:03;0.90;;;0.50;;
49510;SDS011;35413;48.776;9.204;2023-02-01T08:44:52;2.35;;;0.73;;
49510;SDS011;35413;48.776;9.204;2023-02-01T08:47:18;2.53;;;0.70;;
49510;SDS011;35413;48.776;9.204;2023-02-01T08:49:44;0.93;;;0.55;;
49510;SDS011;35413;48.776;9.204;2023-02-01T08:52:10;1.40;;;0.50;;
49510;SDS011;35413;48.776;9.204;2023-02-01T08:54:36;1.70;;;0.60;;
49510;SDS011;35413;48.776;9.204;2023-02-01T08:57:02;1.00;;;0.73;;
49510;SDS011;35413;48.776;9.204;2023-02-01T08:59:28;2.45;;;0.90;;
49510;SDS011;35413;48.776;9.204;2023-02-01T09:01:55;1.05;;;0.60;;
49510;SDS011;35413;48.776;9.204;2023-02-01T09:04:21;1.67;;;0.90;;
49510;SDS011;35413;48.776;9.204;2023-02-01T09:06:47;0.40;;;0.30;;
49510;SDS011;35413;48.776;9.204;2023-02-01T09:09:14;1.27;;;0.60;;
49510;SDS011;35413;48.776;9.204;2023-02-01T09:11:40;1.75;;;0.50;;
49510;SDS011;35413;48.776;9.204;2023-02-01T09:14:06;1.80;;;0.52;;
49510;SDS011;35413;48.776;9.204;2023-02-01T09:16:32;0.60;;;0.40;;
49510;SDS011;35413;48.776;9.204;2023-02-01T09:18:58;2.80;;;0.50;;
49510;SDS011;35413;48.776;9.204;2023-02-01T09:21:24;0.68;;;0.43;;
49510;SDS011;35413;48.776;9.204;2023-02-01T09:23:50;1.85;;;0.68;;
49510;SDS011;35413;48.776;9.204;2023-02-01T09:26:17;1.10;;;0.60;;
49510;SDS011;35413;48.776;9.204;2023-02-01T09:28:43;1.10;;;0.43;;
49510;SDS011;35413;48.776;9.204;2023-02-01T09:31:09;0.60;;;0.50;;
49510;SDS011;35413;48.776;9.204;2023-02-01T09:33:35;1.15;;;0.60;;
49510;SDS011;35413;48.776;9.204;2023-02-01T09:36:02;1.25;;;0.40;;
49510;SDS011;35413;48.776;9.204;2023-02-01T09:38:28;0.95;;;0.55;;
49510;SDS011;35413;48.776;9.204;2023-02-01T09:40:55;1.13;;;0.60;;
49510;SDS011;35413;48.776;9.204;2023-02-01T09:48:36;1.90;;;0.60;;
49510;SDS011;35413;48.776;9.204;2023-02-01T09:51:05;1.23;;;0.80;;
49510;SDS011;35413;48.776;9.204;2023-02-01T09:53:39;1.98;;;0.60;;
49510;SDS011;35413;48.776;9.204;2023-02-01T09:56:10;1.25;;;0.60;;
49510;SDS011;35413;48.776;9.204;2023-02-01T09:58:38;1.77;;;0.80;;
49510;SDS011;35413;48.776;9.204;2023-02-01T10:01:08;1.88;;;0.55;;
49510;SDS011;35413;48.776;9.204;2023-02-01T10:03:36;2.97;;;0.93;;
49510;SDS011;35413;48.776;9.204;2023-02-01T10:06:10;1.85;;;0.73;;
49510;SDS011;35413;48.776;9.204;2023-02-01T10:14:00;1.05;;;0.65;;
49510;SDS011;35413;48.776;9.204;2023-02-01T10:22:27;2.30;;;0.90;;
49510;SDS011;35413;48.776;9.204;2023-02-01T10:27:41;1.27;;;0.70;;
49510;SDS011;35413;48.776;9.204;2023-02-01T10:30:18;3.22;;;0.60;;
49510;SDS011;35413;48.776;9.204;2023-02-01T10:32:44;1.75;;;0.85;;
49510;SDS011;35413;48.776;9.204;2023-02-01T10:35:17;2.20;;;0.77;;
49510;SDS011;35413;48.776;9.204;2023-02-01T10:37:44;3.13;;;0.90;;
49510;SDS011;35413;48.776;9.204;2023-02-01T10:40:18;1.42;;;0.55;;
49510;SDS011;35413;48.776;9.204;2023-02-01T10:42:46;1.40;;;0.70;;
49510;SDS011;35413;48.776;9.204;2023-02-01T10:45:14;2.80;;;1.00;;
49510;SDS011;35413;48.776;9.204;2023-02-01T10:47:41;3.03;;;0.80;;
49510;SDS011;35413;48.776;9.204;2023-02-01T10:52:42;2.40;;;0.90;;
49510;SDS011;35413;48.776;9.204;2023-02-01T10:57:58;2.40;;;0.80;;
49510;SDS011;35413;48.776;9.204;2023-02-01T11:00:24;1.35;;;0.70;;
49510;SDS011;35413;48.776;9.204;2023-02-01T11:02:50;2.00;;;0.70;;
49510;SDS011;35413;48.776;9.204;2023-02-01T11:05:16;2.97;;;0.77;;
49510;SDS011;35413;48.776;9.204;2023-02-01T11:07:47;2.92;;;0.82;;
49510;SDS011;35413;48.776;9.204;2023-02-01T11:12:58;1.25;;;0.68;;
49510;SDS011;35413;48.776;9.204;2023-02-01T11:15:27;2.30;;;0.90;;
49510;SDS011;35413;48.776;9.204;2023-02-01T11:17:53;2.28;;;0.70;;
49510;SDS011;35413;48.776;9.204;2023-02-01T11:20:35;3.15;;;1.00;;
49510;SDS011;35413;48.776;9.204;2023-02-01T11:23:04;1.45;;;0.68;;
49510;SDS011;35413;48.776;9.204;2023-02-01T11:25:30;2.15;;;0.70;;
49510;SDS011;35413;48.776;9.204;2023-02-01T11:27:57;3.17;;;0.88;;
49510;SDS011;35413;48.776;9.204;2023-02-01T11:30:34;2.22;;;0.80;;
49510;SDS011;35413;48.776;9.204;2023-02-01T11:33:02;3.40;;;0.73;;
49510;SDS011;35413;48.776;9.204;2023-02-01T11:35:30;2.70;;;0.80;;
49510;SDS011;35413;48.776;9.204;2023-02-01T11:37:59;2.38;;;0.90;;
49510;SDS011;35413;48.776;9.204;2023-02-01T11:40:27;2.63;;;0.73;;
49510;SDS011;35413;48.776;9.204;2023-02-01T11:42:54;2.72;;;0.90;;
49510;SDS011;35413;48.776;9.204;2023-02-01T11:45:30;4.07;;;0.88;;
49510;SDS011;35413;48.776;9.204;2023-02-01T11:47:59;3.28;;;0.70;;
49510;SDS011;35413;48.776;9.204;2023-02-01T11:50:28;2.67;;;1.00;;
49510;SDS011;35413;48.776;9.204;2023-02-01T11:53:20;3.63;;;1.30;;
49510;SDS011;35413;48.776;9.204;2023-02-01T11:55:56;2.42;;;0.80;;
49510;SDS011;35413;48.776;9.204;2023-02-01T12:06:02;3.30;;;0.70;;
49510;SDS011;35413;48.776;9.204;2023-02-01T12:18:27;1.92;;;0.82;;
49510;SDS011;35413;48.776;9.204;2023-02-01T12:31:40;4.50;;;1.17;;
49510;SDS011;35413;48.776;9.204;2023-02-01T12:34:17;2.67;;;1.20;;
49510;SDS011;35413;48.776;9.204;2023-02-01T12:44:35;3.97;;;1.10;;
49510;SDS011;35413;48.776;9.204;2023-02-01T12:52:09;4.32;;;0.90;;
49510;SDS011;35413;48.776;9.204;2023-02-01T12:54:45;5.70;;;1.77;;
49510;SDS011;35413;48.776;9.204;2023-02-01T12:57:13;2.22;;;1.50;;
49510;SDS011;35413;48.776;9.204;2023-02-01T12:59:51;2.75;;;1.02;;
49510;SDS011;35413;48.776;9.204;2023-02-01T13:07:38;2.88;;;0.90;;
49510;SDS011;35413;48.776;9.204;2023-02-01T13:10:11;2.90;;;1.05;;
49510;SDS011;35413;48.776;9.204;2023-02-01T13:12:40;4.70;;;1.67;;
49510;SDS011;35413;48.776;9.204;2023-02-01T13:17:41;2.40;;;1.23;;
49510;SDS011;35413;48.776;9.204;2023-02-01T13:20:45;2.20;;;1.00;;
49510;SDS011;35413;48.776;9.204;2023-02-01T13:25:33;2.47;;;0.85;;
49510;SDS011;35413;48.776;9.204;2023-02-01T13:28:11;5.22;;;1.30;;
49510;SDS011;35413;48.776;9.204;2023-02-01T13:30:42;3.25;;;0.82;;
49510;SDS011;35413;48.776;9.204;2023-02-01T13:41:02;2.53;;;0.70;;
49510;SDS011;35413;48.776;9.204;2023-02-01T13:43:33;2.47;;;0.80;;
49510;SDS011;35413;48.776;9.204;2023-02-01T13:46:04;3.03;;;1.02;;
49510;SDS011;35413;48.776;9.204;2023-02-01T13:51:12;2.50;;;0.65;;
49510;SDS011;35413;48.776;9.204;2023-02-01T13:53:44;2.75;;;1.10;;
49510;SDS011;35413;48.776;9.204;2023-02-01T13:56:17;2.28;;;0.90;;
49510;SDS011;35413;48.776;9.204;2023-02-01T13:58:45;4.88;;;1.15;;
49510;SDS011;35413;48.776;9.204;2023-02-01T14:03:53;5.47;;;1.17;;
49510;SDS011;35413;48.776;9.204;2023-02-01T14:09:11;3.78;;;0.90;;
49510;SDS011;35413;48.776;9.204;2023-02-01T14:12:04;3.50;;;0.90;;
49510;SDS011;35413;48.776;9.204;2023-02-01T14:19:26;2.88;;;1.00;;
49510;SDS011;35413;48.776;9.204;2023-02-01T14:21:53;4.03;;;1.67;;
49510;SDS011;35413;48.776;9.204;2023-02-01T14:24:27;3.72;;;1.17;;
49510;SDS011;35413;48.776;9.204;2023-02-01T14:26:54;2.58;;;0.75;;
49510;SDS011;35413;48.776;9.204;2023-02-01T14:29:32;2.50;;;1.10;;
49510;SDS011;35413;48.776;9.204;2023-02-01T14:32:05;2.47;;;0.95;;
49510;SDS011;35413;48.776;9.204;2023-02-01T14:37:23;3.20;;;1.00;;
49510;SDS011;35413;48.776;9.204;2023-02-01T14:42:18;1.92;;;0.70;;
49510;SDS011;35413;48.776;9.204;2023-02-01T14:44:47;3.20;;;0.90;;
49510;SDS011;35413;48.776;9.204;2023-02-01T14:52:20;3.55;;;1.13;;
49510;SDS011;35413;48.776;9.204;2023-02-01T14:54:53;3.10;;;1.10;;
49510;SDS011;35413;48.776;9.204;2023-02-01T14:57:20;2.92;;;0.82;;
49510;SDS011;35413;48.776;9.204;2023-02-01T14:59:49;3.17;;;0.80;;
49510;SDS011;35413;48.776;9.204;2023-02-01T15:02:21;1.33;;;1.13;;
49510;SDS011;35413;48.776;9.204;2023-02-01T15:04:47;3.60;;;0.77;;
49510;SDS011;35413;48.776;9.204;2023-02-01T15:07:18;2.13;;;0.77;;
49510;SDS011;35413;48.776;9.204;2023-02-01T15:09:45;3.50;;;0.80;;
49510;SDS011;35413;48.776;9.204;2023-02-01T15:14:43;2.03;;;0.70;;
49510;SDS011;35413;48.776;9.204;2023-02-01T15:17:18;4.90;;;1.17;;
49510;SDS011;35413;48.776;9.204;2023-02-01T15:19:57;3.63;;;0.98;;
49510;SDS011;35413;48.776;9.204;2023-02-01T15:22:23;2.80;;;1.13;;
49510;SDS011;35413;48.776;9.204;2023-02-01T15:24:56;3.78;;;0.98;;
49510;SDS011;35413;48.776;9.204;2023-02-01T15:27:22;1.88;;;0.70;;
49510;SDS011;35413;48.776;9.204;2023-02-01T15:29:48;3.03;;;1.27;;
49510;SDS011;35413;48.776;9.204;2023-02-01T15:34:59;4.18;;;1.02;;
49510;SDS011;35413;48.776;9.204;2023-02-01T15:37:25;3.05;;;1.60;;
49510;SDS011;35413;48.776;9.204;2023-02-01T15:40:14;4.65;;;1.00;;
49510;SDS011;35413;48.776;9.204;2023-02-01T15:45:19;4.20;;;1.05;;
49510;SDS011;35413;48.776;9.204;2023-02-01T15:47:48;6.70;;;2.15;;
49510;SDS011;35413;48.776;9.204;2023-02-01T15:50:15;11.55;;;1.73;;
49510;SDS011;35413;48.776;9.204;2023-02-01T15:52:42;3.40;;;0.77;;
49510;SDS011;35413;48.776;9.204;2023-02-01T15:55:08;14.48;;;1.45;;
49510;SDS011;35413;48.776;9.204;2023-02-01T15:57:43;3.65;;;0.93;;
49510;SDS011;35413;48.776;9.204;2023-02-01T16:08:00;4.63;;;1.15;;
49510;SDS011;35413;48.776;9.204;2023-02-01T16:10:29;4.95;;;1.00;;
49510;SDS011;35413;48.776;9.204;2023-02-01T16:12:55;4.15;;;1.10;;
49510;SDS011;35413;48.776;9.204;2023-02-01T16:15:26;2.95;;;1.27;;
49510;SDS011;35413;48.776;9.204;2023-02-01T16:17:54;3.80;;;1.42;;
49510;SDS011;35413;48.776;9.204;2023-02-01T16:20:20;2.33;;;1.27;;
49510;SDS011;35413;48.776;9.204;2023-02-01T16:22:46;3.13;;;1.50;;
49510;SDS011;35413;48.776;9.204;2023-02-01T16:25:12;3.38;;;1.20;;
49510;SDS011;35413;48.776;9.204;2023-02-01T16:27:38;2.65;;;1.25;;
49510;SDS011;35413;48.776;9.204;2023-02-01T16:30:04;5.15;;;1.40;;
49510;SDS011;35413;48.776;9.204;2023-02-01T16:32:30;1.75;;;0.85;;
49510;SDS011;35413;48.776;9.204;2023-02-01T16:34:56;3.05;;;1.50;;
49510;SDS011;35413;48.776;9.204;2023-02-01T16:37:23;3.33;;;1.00;;
49510;SDS011;35413;48.776;9.204;2023-02-01T16:39:49;3.15;;;1.23;;
49510;SDS011;35413;48.776;9.204;2023-02-01T16:42:15;3.75;;;1.02;;
49510;SDS011;35413;48.776;9.204;2023-02-01T16:44:42;3.33;;;1.00;;
49510;SDS011;35413;48.776;9.204;2023-02-01T16:47:15;1.70;;;0.73;;
49510;SDS011;35413;48.776;9.204;2023-02-01T16:49:41;3.25;;;1.50;;
49510;SDS011;35413;48.776;9.204;2023-02-01T16:52:13;2.60;;;0.65;;
49510;SDS011;35413;48.776;9.204;2023-02-01T16:54:39;2.38;;;0.80;;
49510;SDS011;35413;48.776;9.204;2023-02-01T16:57:07;3.63;;;1.10;;
49510;SDS011;35413;48.776;9.204;2023-02-01T16:59:36;2.83;;;0.90;;
49510;SDS011;35413;48.776;9.204;2023-02-01T17:02:02;3.78;;;1.02;;
49510;SDS011;35413;48.776;9.204;2023-02-01T17:04:28;2.25;;;0.80;;
49510;SDS011;35413;48.776;9.204;2023-02-01T17:06:54;2.53;;;0.60;;
49510;SDS011;35413;48.776;9.204;2023-02-01T17:09:20;1.42;;;1.00;;
49510;SDS011;35413;48.776;9.204;2023-02-01T17:11:47;2.95;;;0.93;;
49510;SDS011;35413;48.776;9.204;2023-02-01T17:14:15;2.47;;;1.27;;
49510;SDS011;35413;48.776;9.204;2023-02-01T17:16:41;3.33;;;0.75;;
49510;SDS011;35413;48.776;9.204;2023-02-01T17:19:11;3.42;;;1.17;;